Time;durP1;ratioP1;P1;durP2;ratioP2;P2;SDS_P1;SDS_P2;PMS_P1;PMS_P2;Temp;Humidity;BMP_temperature;BMP_pressure;BME280_temperature;BME280_humidity;BME280_pressure;Samples;Min_cycle;Max_cycle;Signal;HPM_P1;HPM_P2
2022/10/17 00:04:32;;;;;;;6.35;5.13;;;;;;;13.70;86.81;100687.66;10507793;28;20048;-78
2022/10/17 00:09:37;;;;;;;8.20;5.82;;;;;;;13.70;86.95;100694.91;10502448;28;20040;-77
2022/10/17 00:14:40;;;;;;;6.75;6.05;;;;;;;13.68;86.76;100697.72;10503731;28;20052;-77
2022/10/17 00:19:43;;;;;;;7.00;6.00;;;;;;;13.68;87.36;100700.44;10500053;28;20052;-79
2022/10/17 00:24:47;;;;;;;13.85;6.78;;;;;;;13.76;87.27;100710.56;10500628;28;20068;-77
2022/10/17 00:29:50;;;;;;;8.18;6.93;;;;;;;13.74;87.00;100706.28;10507651;28;20604;-77
2022/10/17 00:34:53;;;;;;;9.00;7.00;;;;;;;13.78;86.80;100705.88;10509918;28;20072;-77
2022/10/17 00:39:58;;;;;;;7.40;6.40;;;;;;;13.84;86.64;100707.16;10529308;28;20524;-77
2022/10/17 00:45:15;;;;;;;7.47;6.68;;;;;;;13.85;86.82;100703.47;10522758;28;20043;-78
2022/10/17 00:50:19;;;;;;;8.52;6.30;;;;;;;13.84;86.90;100699.91;10503846;28;20052;-78
2022/10/17 00:55:28;;;;;;;9.15;6.40;;;;;;;13.86;86.82;100694.41;10523878;28;20059;-78
2022/10/17 01:00:31;;;;;;;11.60;7.25;;;;;;;13.83;86.91;100698.22;10523620;28;20044;-77
2022/10/17 01:05:34;;;;;;;8.70;7.22;;;;;;;13.85;86.78;100703.47;10515179;28;20032;-78
2022/10/17 01:10:48;;;;;;;8.63;6.97;;;;;;;13.79;86.59;100694.06;10486198;28;20045;-78
2022/10/17 01:15:59;;;;;;;12.50;7.45;;;;;;;13.76;87.00;100694.34;10502464;28;20083;-76
2022/10/17 01:21:40;;;;;;;13.73;7.63;;;;;;;13.81;86.82;100702.03;10511489;28;20462;-78
2022/10/17 01:26:59;;;;;;;9.35;7.68;;;;;;;13.70;86.84;100693.06;10503275;28;20061;-78
2022/10/17 01:32:08;;;;;;;10.02;9.02;;;;;;;13.77;87.06;100698.78;10480888;28;20041;-78
2022/10/17 01:37:19;;;;;;;10.88;8.27;;;;;;;13.76;87.02;100701.59;10501887;28;20037;-78
2022/10/17 01:42:27;;;;;;;11.02;7.32;;;;;;;13.73;86.65;100691.09;10507276;28;20062;-76
2022/10/17 01:47:33;;;;;;;9.50;8.27;;;;;;;13.63;87.15;100681.13;10512689;28;20044;-78
2022/10/17 01:52:42;;;;;;;12.27;7.82;;;;;;;13.64;87.09;100681.97;10487947;28;20045;-78
2022/10/17 01:57:50;;;;;;;8.63;7.43;;;;;;;13.65;87.32;100680.97;10513794;28;20049;-78
2022/10/17 02:02:58;;;;;;;9.93;7.93;;;;;;;13.61;87.01;100663.34;10500682;28;20064;-79
2022/10/17 02:08:01;;;;;;;9.98;7.90;;;;;;;13.62;86.74;100656.94;10490869;28;20048;-78
2022/10/17 02:13:15;;;;;;;11.88;7.18;;;;;;;13.59;86.71;100649.13;10501882;28;20044;-78
2022/10/17 02:18:46;;;;;;;9.68;7.85;;;;;;;13.58;86.97;100647.44;10506768;28;20040;-78
2022/10/17 02:23:54;;;;;;;13.13;8.30;;;;;;;13.55;86.75;100650.38;10510660;28;20052;-77
2022/10/17 02:29:06;;;;;;;12.40;7.95;;;;;;;13.51;86.84;100646.25;10509999;28;20051;-78
2022/10/17 02:34:16;;;;;;;12.13;6.97;;;;;;;13.37;87.38;100650.19;10508451;28;20053;-77
2022/10/17 02:39:22;;;;;;;;;;;;;;;13.46;87.05;100647.50;10492099;28;20048;-78
2022/10/17 02:44:26;;;;;;;10.30;6.68;;;;;;;13.44;87.05;100654.06;10503290;28;19945;-77
2022/10/17 02:49:36;;;;;;;10.07;7.35;;;;;;;13.44;86.72;100644.13;10513632;28;20074;-78
2022/10/17 02:54:43;;;;;;;9.80;8.05;;;;;;;13.36;87.15;100635.81;10505300;28;20052;-78
2022/10/17 02:59:47;;;;;;;11.35;7.95;;;;;;;13.42;86.63;100637.16;10501556;28;20048;-76
2022/10/17 03:04:51;;;;;;;10.48;8.68;;;;;;;13.44;86.91;100633.31;10504653;28;20127;-77
2022/10/17 03:09:54;;;;;;;11.32;7.82;;;;;;;13.46;86.85;100634.03;10497459;28;20053;-78
2022/10/17 03:14:57;;;;;;;9.13;7.97;;;;;;;13.41;86.96;100628.22;10491728;28;20513;-79
2022/10/17 03:20:02;;;;;;;13.52;8.95;;;;;;;13.40;87.00;100631.88;10516458;28;20078;-77
2022/10/17 03:25:05;;;;;;;12.55;8.57;;;;;;;13.42;87.11;100634.44;10532622;22;20152;-76
2022/10/17 03:30:11;;;;;;;14.10;9.10;;;;;;;13.39;87.26;100643.66;10429554;28;20045;-76
2022/10/17 03:35:15;;;;;;;10.32;9.23;;;;;;;13.42;87.04;100650.66;10445354;28;20045;-76
2022/10/17 03:40:22;;;;;;;14.63;9.65;;;;;;;13.44;86.99;100654.06;10408516;28;20050;-76
2022/10/17 03:45:25;;;;;;;11.57;9.18;;;;;;;13.41;87.11;100663.28;10420939;28;20511;-76
2022/10/17 03:50:30;;;;;;;14.93;9.82;;;;;;;13.44;87.16;100654.91;10416045;28;20077;-77
2022/10/17 03:55:34;;;;;;;13.43;10.32;;;;;;;13.39;87.33;100662.56;10429318;28;20095;-76
2022/10/17 04:00:37;;;;;;;10.93;9.75;;;;;;;13.41;87.70;100659.72;10427159;28;20041;-77
2022/10/17 04:05:41;;;;;;;9.98;8.00;;;;;;;13.38;87.21;100657.28;10422802;28;20044;-77
2022/10/17 04:10:45;;;;;;;12.35;8.75;;;;;;;13.39;87.28;100648.22;10424768;28;20091;-77
2022/10/17 04:15:54;;;;;;;11.93;8.30;;;;;;;13.34;87.55;100648.59;10419066;28;20041;-77
2022/10/17 04:21:01;;;;;;;12.35;9.63;;;;;;;13.40;87.62;100668.81;10419970;28;20049;-76
2022/10/17 04:26:07;;;;;;;16.33;9.25;;;;;;;13.37;87.50;100669.94;10408650;28;20045;-77
2022/10/17 04:31:12;;;;;;;11.00;9.45;;;;;;;13.40;87.16;100660.72;10422727;28;20099;-77
2022/10/17 04:36:36;;;;;;;14.38;9.88;;;;;;;13.38;87.34;100651.88;10423967;28;20546;-77
2022/10/17 04:41:39;;;;;;;13.18;10.25;;;;;;;13.34;87.56;100662.06;10427424;28;20053;-76
2022/10/17 04:46:42;;;;;;;14.00;9.68;;;;;;;13.35;87.71;100663.78;10435841;28;20037;-76
2022/10/17 04:51:46;;;;;;;17.23;10.07;;;;;;;13.41;87.52;100678.59;10413132;28;20137;-77
2022/10/17 04:56:56;;;;;;;12.98;9.57;;;;;;;13.47;87.74;100689.72;10437849;28;20413;-77
2022/10/17 05:02:00;;;;;;;16.30;10.25;;;;;;;13.54;87.42;100679.22;10407623;28;20044;-77
2022/10/17 05:07:04;;;;;;;12.52;9.05;;;;;;;13.53;87.25;100682.06;10408715;28;20071;-77
2022/10/17 05:12:12;;;;;;;13.75;10.23;;;;;;;13.44;87.41;100671.09;10438261;28;20145;-77
2022/10/17 05:17:19;;;;;;;16.85;9.57;;;;;;;13.38;87.28;100671.63;10407172;28;20081;-77
2022/10/17 05:22:23;;;;;;;12.15;10.10;;;;;;;13.45;87.18;100675.50;10411706;28;20049;-77
2022/10/17 05:27:26;;;;;;;16.05;9.45;;;;;;;13.46;87.13;100665.56;10423299;28;20049;-77
2022/10/17 05:32:29;;;;;;;15.38;9.65;;;;;;;13.46;87.01;100671.81;10425675;28;20084;-77
2022/10/17 05:37:35;;;;;;;12.30;9.70;;;;;;;13.47;87.13;100670.81;10428823;28;20090;-77
2022/10/17 05:42:39;;;;;;;16.25;10.40;;;;;;;13.49;87.47;100679.66;10418282;28;20596;-77
2022/10/17 05:47:47;;;;;;;15.90;10.10;;;;;;;13.43;87.41;100674.78;10415623;28;20042;-78
2022/10/17 05:52:54;;;;;;;15.98;11.48;;;;;;;13.55;87.13;100677.38;10410670;28;20045;-77
2022/10/17 05:57:59;;;;;;;15.57;10.43;;;;;;;13.61;87.17;100685.78;10413194;28;20106;-77
2022/10/17 06:03:09;;;;;;;12.77;9.65;;;;;;;13.73;86.88;100682.97;10427605;28;20045;-77
2022/10/17 06:08:14;;;;;;;9.63;5.88;;;;;;;13.66;86.97;100674.59;10410862;28;20046;-77
2022/10/17 06:13:18;;;;;;;10.93;8.00;;;;;;;13.74;86.82;100673.88;10411558;28;20088;-77
2022/10/17 06:18:25;;;;;;;6.13;4.75;;;;;;;13.82;86.39;100682.16;10414572;28;20095;-78
2022/10/17 06:23:30;;;;;;;7.10;6.07;;;;;;;13.92;86.01;100699.22;10426566;28;20097;-78
2022/10/17 06:28:44;;;;;;;9.27;6.30;;;;;;;13.97;85.95;100705.06;10417591;28;20052;-77
2022/10/17 06:33:47;;;;;;;9.75;7.68;;;;;;;14.10;85.18;100712.94;10450257;28;20033;-76
2022/10/17 06:38:52;;;;;;;10.85;8.82;;;;;;;14.18;84.84;100726.59;10432625;28;20050;-77
2022/10/17 06:44:07;;;;;;;10.55;7.85;;;;;;;14.28;84.19;100732.00;10419133;28;20049;-77
2022/10/17 06:49:28;;;;;;;11.52;7.63;;;;;;;14.34;83.88;100740.41;10373956;28;20087;-76
2022/10/17 06:54:51;;;;;;;10.88;6.70;;;;;;;14.66;83.29;100754.69;10380557;28;20501;-77
2022/10/17 07:00:17;;;;;;;13.13;6.88;;;;;;;14.96;81.78;100756.38;10360654;28;20048;-78
2022/10/17 07:05:24;;;;;;;6.50;5.65;;;;;;;15.12;81.20;100761.22;10348017;28;20052;-77
2022/10/17 07:10:28;;;;;;;6.93;5.75;;;;;;;15.17;80.14;100776.00;10355308;28;20133;-77
2022/10/17 07:15:32;;;;;;;10.15;6.78;;;;;;;15.01;80.70;100779.31;10363201;28;20051;-77
2022/10/17 07:20:35;;;;;;;8.52;6.45;;;;;;;15.06;80.54;100787.00;10378921;28;20191;-76
2022/10/17 07:25:39;;;;;;;7.82;7.00;;;;;;;15.21;80.40;100792.81;10378387;28;20048;-77
2022/10/17 07:30:44;;;;;;;8.65;6.53;;;;;;;15.33;80.08;100794.38;10361589;28;20445;-77
2022/10/17 07:35:52;;;;;;;8.23;6.22;;;;;;;15.44;79.98;100804.19;10357261;28;20042;-77
2022/10/17 07:40:58;;;;;;;8.43;6.00;;;;;;;15.62;79.20;100804.28;10357061;28;20064;-77
2022/10/17 07:46:01;;;;;;;6.90;6.20;;;;;;;15.68;78.86;100806.41;10351030;28;20398;-77
2022/10/17 07:51:07;;;;;;;7.53;5.60;;;;;;;16.11;77.45;100803.09;10366922;28;20061;-78
2022/10/17 07:56:12;;;;;;;6.30;5.18;;;;;;;16.27;76.65;100807.03;10382487;28;20056;-78
2022/10/17 08:01:15;;;;;;;9.23;5.75;;;;;;;16.29;76.48;100799.59;10385871;28;20069;-76
2022/10/17 08:06:18;;;;;;;7.82;5.45;;;;;;;16.56;75.56;100812.28;10363869;28;20061;-78
2022/10/17 08:11:24;;;;;;;7.43;5.15;;;;;;;16.67;75.26;100808.50;10379710;28;20060;-78
2022/10/17 08:16:27;;;;;;;6.63;4.85;;;;;;;16.83;75.12;100800.50;10403569;28;20571;-78
2022/10/17 08:21:30;;;;;;;9.45;5.25;;;;;;;16.72;75.36;100808.88;10396133;28;20048;-76
2022/10/17 08:26:34;;;;;;;7.38;5.18;;;;;;;16.63;76.13;100790.84;10381920;28;20053;-76
2022/10/17 08:31:42;;;;;;;12.90;5.90;;;;;;;16.87;75.92;100787.50;10378486;28;20045;-76
2022/10/17 08:36:50;;;;;;;6.88;5.32;;;;;;;17.00;75.40;100788.81;10392316;28;20063;-77
2022/10/17 08:42:06;;;;;;;5.63;4.97;;;;;;;17.22;74.73;100779.34;10379972;28;20073;-77
2022/10/17 08:47:14;;;;;;;6.18;5.28;;;;;;;17.48;73.77;100773.06;10391577;28;20049;-77
2022/10/17 08:52:25;;;;;;;5.13;4.53;;;;;;;18.14;71.75;100775.13;10371938;28;20053;-77
2022/10/17 08:57:30;;;;;;;12.30;4.78;;;;;;;19.06;69.09;100775.16;10384901;28;20049;-77
2022/10/17 09:02:41;;;;;;;7.18;4.07;;;;;;;19.54;67.06;100776.09;10371856;28;20125;-77
2022/10/17 09:07:53;;;;;;;6.55;4.50;;;;;;;19.67;65.99;100773.72;10394232;28;20460;-77
2022/10/17 09:13:15;;;;;;;6.22;3.75;;;;;;;18.92;68.01;100773.94;10368432;28;20049;-77
2022/10/17 09:18:23;;;;;;;7.53;4.40;;;;;;;18.76;68.91;100777.47;10396121;28;20054;-78
2022/10/17 09:23:31;;;;;;;7.40;3.85;;;;;;;19.02;68.82;100781.94;10377674;28;20060;-77
2022/10/17 09:28:37;;;;;;;6.40;3.90;;;;;;;19.50;68.11;100785.66;10395556;28;20517;-77
2022/10/17 09:33:42;;;;;;;7.88;4.47;;;;;;;20.13;66.69;100778.50;10366751;28;20490;-77
2022/10/17 09:39:04;;;;;;;7.47;3.78;;;;;;;21.05;64.99;100772.31;10392619;28;20045;-77
2022/10/17 09:44:17;;;;;;;4.78;3.60;;;;;;;22.07;61.05;100761.66;10412560;28;20157;-77
2022/10/17 09:49:28;;;;;;;3.42;2.88;;;;;;;22.27;59.20;100779.19;10380497;28;20053;-76
2022/10/17 09:54:41;;;;;;;6.20;2.55;;;;;;;21.87;57.83;100770.47;10394252;28;20049;-76
2022/10/17 09:59:56;;;;;;;5.18;2.63;;;;;;;22.11;57.55;100787.63;10401245;28;20050;-77
2022/10/17 10:05:01;;;;;;;6.38;2.75;;;;;;;22.17;57.89;100786.84;10434144;28;20057;-78
2022/10/17 10:10:22;;;;;;;3.65;2.80;;;;;;;22.46;56.69;100779.63;10445612;28;20056;-77
2022/10/17 10:15:36;;;;;;;5.90;3.03;;;;;;;22.85;55.30;100781.13;10375528;28;20060;-78
2022/10/17 10:20:40;;;;;;;7.90;3.10;;;;;;;23.16;55.96;100784.38;10377056;28;20517;-77
2022/10/17 10:25:53;;;;;;;6.97;2.70;;;;;;;23.05;54.47;100801.31;10370025;28;20042;-77
2022/10/17 10:31:00;;;;;;;3.30;2.50;;;;;;;23.28;54.65;100803.88;10377310;28;20050;-78
2022/10/17 10:36:06;;;;;;;6.53;2.90;;;;;;;23.21;54.14;100806.56;10408346;28;20060;-78
2022/10/17 10:41:11;;;;;;;5.38;2.50;;;;;;;24.61;51.37;100806.59;10402082;28;20135;-78
2022/10/17 10:46:20;;;;;;;5.13;3.00;;;;;;;25.48;49.88;100807.53;10387930;28;20410;-78
2022/10/17 10:51:29;;;;;;;5.65;2.33;;;;;;;26.22;47.39;100803.56;10390630;28;20045;-80
2022/10/17 10:56:37;;;;;;;4.07;2.35;;;;;;;25.67;47.67;100803.97;10399786;28;20121;-79
2022/10/17 11:01:48;;;;;;;7.35;2.60;;;;;;;25.69;49.21;100829.34;10393486;28;20060;-80
2022/10/17 11:06:58;;;;;;;3.97;2.27;;;;;;;25.04;50.58;100841.97;10376823;28;20188;-80
2022/10/17 11:12:06;;;;;;;8.35;2.90;;;;;;;23.75;51.81;100857.19;10396171;28;20049;-80
2022/10/17 11:17:18;;;;;;;5.68;2.20;;;;;;;22.74;55.64;100854.53;10397114;28;20053;-79
2022/10/17 11:22:26;;;;;;;6.50;2.95;;;;;;;23.01;56.43;100857.56;10412667;28;20082;-80
2022/10/17 11:27:31;;;;;;;12.45;3.35;;;;;;;22.38;57.54;100872.78;10405638;28;20715;-79
2022/10/17 11:32:42;;;;;;;8.77;2.92;;;;;;;21.73;58.72;100888.00;10400721;28;20045;-79
2022/10/17 11:37:49;;;;;;;4.30;3.25;;;;;;;20.68;59.65;100899.47;10398240;28;20700;-76
2022/10/17 11:42:59;;;;;;;11.05;3.88;;;;;;;21.07;60.61;100904.94;10393841;28;20600;-78
2022/10/17 11:48:12;;;;;;;8.90;3.55;;;;;;;21.04;60.16;100894.38;10392980;28;20417;-80
2022/10/17 11:53:17;;;;;;;5.68;3.30;;;;;;;20.50;61.52;100903.31;10394695;28;20494;-78
2022/10/17 11:58:35;;;;;;;6.22;3.70;;;;;;;20.80;60.99;100914.44;10421150;28;20056;-80
2022/10/17 12:04:10;;;;;;;7.80;3.83;;;;;;;20.62;61.92;100930.22;10389186;28;20136;-80
2022/10/17 12:09:22;;;;;;;5.70;3.70;;;;;;;20.55;62.91;100932.81;10373147;28;20053;-80
2022/10/17 12:14:42;;;;;;;7.38;3.33;;;;;;;20.42;63.11;100919.72;10377340;28;20267;-80
2022/10/17 12:19:47;;;;;;;5.28;3.00;;;;;;;20.16;62.76;100930.88;10401957;28;20063;-80
2022/10/17 12:24:56;;;;;;;7.57;3.35;;;;;;;20.33;63.00;100926.25;10422062;28;20045;-80
2022/10/17 12:30:00;;;;;;;5.45;3.70;;;;;;;19.88;62.81;100922.22;10429692;28;20059;-79
2022/10/17 12:35:05;;;;;;;3.92;3.50;;;;;;;20.37;62.82;100922.13;10405948;28;20083;-80
2022/10/17 12:40:42;;;;;;;7.80;3.47;;;;;;;21.00;60.29;100934.78;10421022;28;20050;-81
2022/10/17 12:45:52;;;;;;;5.53;4.20;;;;;;;20.81;61.24;100928.94;10415833;28;20056;-81
2022/10/17 12:51:07;;;;;;;8.60;4.97;;;;;;;20.16;62.85;100940.91;10407268;28;20146;-80
2022/10/17 12:56:34;;;;;;;8.60;4.50;;;;;;;20.30;64.91;100932.88;10382336;28;20044;-79
2022/10/17 13:01:39;;;;;;;7.45;4.60;;;;;;;20.29;65.46;100930.31;10399366;28;20065;-77
2022/10/17 13:06:47;;;;;;;10.20;3.83;;;;;;;19.83;65.73;100925.47;10371050;28;20105;-81
2022/10/17 13:11:51;;;;;;;6.35;3.88;;;;;;;20.04;66.06;100919.47;10418808;28;20094;-79
2022/10/17 13:16:56;;;;;;;7.38;4.43;;;;;;;20.19;64.78;100924.22;10392305;28;20087;-79
2022/10/17 13:22:02;;;;;;;10.65;4.32;;;;;;;20.37;64.62;100933.03;10412810;28;20127;-79
2022/10/17 13:27:23;;;;;;;9.15;3.83;;;;;;;20.47;63.11;100919.22;10405369;28;20053;-79
2022/10/17 13:32:36;;;;;;;12.85;4.80;;;;;;;20.60;63.48;100938.59;10446109;28;20052;-77
2022/10/17 13:37:42;;;;;;;5.47;3.85;;;;;;;20.61;62.93;100939.44;10422350;28;20041;-77
2022/10/17 13:42:45;;;;;;;6.07;3.55;;;;;;;20.64;62.56;100939.09;10389984;28;20056;-76
2022/10/17 13:47:48;;;;;;;10.43;3.85;;;;;;;20.71;61.68;100948.28;10384914;28;20205;-78
2022/10/17 13:53:18;;;;;;;5.72;3.42;;;;;;;20.29;63.31;100957.59;10380235;28;20045;-77
2022/10/17 13:58:21;;;;;;;7.13;3.70;;;;;;;20.32;62.55;100968.19;10381400;28;20083;-78
2022/10/17 14:03:24;;;;;;;12.82;5.20;;;;;;;20.35;62.46;100970.59;10371042;28;20127;-79
2022/10/17 14:08:54;;;;;;;10.73;3.78;;;;;;;20.06;63.74;100971.09;10383005;28;20049;-78
2022/10/17 14:13:58;;;;;;;7.38;3.85;;;;;;;19.83;63.67;100981.88;10399717;28;20073;-78
2022/10/17 14:19:00;;;;;;;8.43;3.28;;;;;;;19.59;64.57;100985.44;10404112;28;20057;-78
2022/10/17 14:24:26;;;;;;;5.97;3.72;;;;;;;19.28;65.09;100993.34;10407083;28;20061;-78
2022/10/17 14:29:30;;;;;;;8.52;4.05;;;;;;;19.80;63.43;100985.78;10379441;28;20053;-77
2022/10/17 14:34:35;;;;;;;7.07;3.83;;;;;;;19.79;62.84;100996.84;10366226;28;20502;-77
2022/10/17 14:39:39;;;;;;;7.38;4.10;;;;;;;19.97;62.79;101003.00;10382743;28;20042;-78
2022/10/17 14:44:42;;;;;;;6.13;4.07;;;;;;;19.77;63.96;101009.78;10393062;28;20477;-77
2022/10/17 14:49:49;;;;;;;8.70;4.07;;;;;;;19.34;65.59;101019.94;10401402;28;22044;-77
2022/10/17 14:54:54;;;;;;;10.82;3.80;;;;;;;19.28;66.14;101023.28;10404124;28;20053;-79
2022/10/17 14:59:57;;;;;;;10.27;4.05;;;;;;;19.37;65.71;101028.63;10405441;28;20053;-76
2022/10/17 15:04:59;;;;;;;7.90;4.53;;;;;;;19.50;65.14;101033.59;10386500;28;20057;-77
2022/10/17 15:10:04;;;;;;;4.97;4.05;;;;;;;19.69;64.81;101037.88;10397293;28;20064;-77
2022/10/17 15:15:08;;;;;;;5.40;4.47;;;;;;;19.62;65.28;101035.00;10388312;28;20509;-76
2022/10/17 15:20:14;;;;;;;8.68;4.70;;;;;;;19.58;65.37;101046.38;10376162;28;20080;-76
2022/10/17 15:25:18;;;;;;;8.68;4.60;;;;;;;19.61;65.20;101046.03;10388966;28;20042;-76
2022/10/17 15:30:25;;;;;;;7.05;4.57;;;;;;;19.75;65.77;101041.84;10398649;28;20045;-76
2022/10/17 15:35:28;;;;;;;8.52;4.60;;;;;;;19.60;65.46;101031.56;10403970;28;20064;-77
2022/10/17 15:40:33;;;;;;;7.38;3.85;;;;;;;19.70;65.20;101044.22;10404544;28;20043;-76
2022/10/17 15:45:36;;;;;;;7.45;4.35;;;;;;;19.60;65.45;101058.81;10399652;28;20482;-77
2022/10/17 15:50:39;;;;;;;6.47;3.70;;;;;;;19.53;66.04;101063.22;10397510;28;20409;-78
2022/10/17 15:55:43;;;;;;;8.75;4.40;;;;;;;19.36;66.61;101073.22;10368359;28;20045;-76
2022/10/17 16:00:47;;;;;;;9.60;4.80;;;;;;;19.35;66.77;101084.28;10417558;28;20111;-76
2022/10/17 16:05:50;;;;;;;11.35;5.18;;;;;;;19.27;67.39;101090.53;10418388;28;20048;-77
2022/10/17 16:10:54;;;;;;;10.23;4.18;;;;;;;18.94;68.55;101098.56;10412244;28;20045;-76
2022/10/17 16:15:57;;;;;;;9.32;5.07;;;;;;;19.04;68.25;101117.50;10388781;28;20055;-76
2022/10/17 16:21:00;;;;;;;11.32;4.47;;;;;;;18.92;69.32;101121.50;10405754;28;20124;-78
2022/10/17 16:26:04;;;;;;;8.02;4.10;;;;;;;18.33;71.05;101127.53;10404734;28;20048;-79
2022/10/17 16:31:18;;;;;;;9.77;4.60;;;;;;;18.46;70.76;101127.13;10391104;28;20115;-76
2022/10/17 16:36:21;;;;;;;8.80;4.50;;;;;;;18.79;69.57;101141.88;10412697;28;20059;-77
2022/10/17 16:41:27;;;;;;;10.05;6.75;;;;;;;18.62;71.34;101136.41;10411148;28;20052;-79
2022/10/17 16:46:31;;;;;;;10.07;5.40;;;;;;;18.21;73.73;101142.41;10381472;28;20053;-78
2022/10/17 16:51:35;;;;;;;10.85;6.25;;;;;;;17.56;79.95;101147.97;10382266;28;20053;-77
2022/10/17 16:56:40;;;;;;;11.82;6.53;;;;;;;17.21;82.46;101170.44;10398781;28;20057;-78
2022/10/17 17:01:43;;;;;;;12.65;7.22;;;;;;;17.12;82.87;101169.44;10439265;28;20048;-77
2022/10/17 17:06:46;;;;;;;14.38;8.98;;;;;;;17.30;82.29;101184.97;10456306;28;20052;-77
2022/10/17 17:11:50;;;;;;;12.63;8.40;;;;;;;17.36;82.45;101181.63;10405634;28;20055;-77
2022/10/17 17:16:53;;;;;;;10.50;6.93;;;;;;;17.11;83.06;101194.84;10410376;28;20068;-79
2022/10/17 17:21:56;;;;;;;11.68;8.18;;;;;;;17.23;82.83;101201.84;10396359;28;20045;-78
2022/10/17 17:27:00;;;;;;;14.02;8.63;;;;;;;17.26;83.74;101203.41;10366081;28;20417;-79
2022/10/17 17:32:03;;;;;;;16.23;8.40;;;;;;;17.19;83.67;101197.72;10397992;28;20332;-78
2022/10/17 17:37:05;;;;;;;13.05;8.82;;;;;;;17.05;85.16;101206.28;10408379;28;20076;-78
2022/10/17 17:42:10;;;;;;;12.63;9.10;;;;;;;16.79;86.68;101206.09;10402658;28;20618;-77
2022/10/17 17:47:13;;;;;;;12.63;8.52;;;;;;;16.77;87.31;101197.22;10399311;28;20067;-79
2022/10/17 17:52:16;;;;;;;14.23;9.88;;;;;;;16.76;87.56;101212.66;10398404;28;20115;-81
2022/10/17 17:57:20;;;;;;;15.63;10.00;;;;;;;16.75;87.55;101201.94;10392937;28;20128;-80
2022/10/17 18:02:22;;;;;;;15.23;10.88;;;;;;;16.75;87.77;101207.34;10385827;28;20049;-79
2022/10/17 18:07:26;;;;;;;14.00;9.88;;;;;;;16.77;87.26;101208.06;10381806;28;21299;-78
2022/10/17 18:12:30;;;;;;;22.77;11.18;;;;;;;16.73;87.66;101195.78;10412081;28;20718;-80
2022/10/17 18:17:34;;;;;;;16.77;10.52;;;;;;;16.50;88.22;101195.25;10409735;28;20136;-78
2022/10/17 18:22:37;;;;;;;23.17;11.70;;;;;;;16.59;87.90;101211.53;10370482;28;20124;-79
2022/10/17 18:27:41;;;;;;;14.65;9.88;;;;;;;16.58;87.39;101201.66;10418343;28;20080;-78
2022/10/17 18:32:44;;;;;;;20.33;10.13;;;;;;;16.75;86.46;101219.06;10402374;28;20155;-79
2022/10/17 18:37:48;;;;;;;14.05;10.65;;;;;;;16.81;86.37;101206.78;10405546;28;20058;-79
2022/10/17 18:42:52;;;;;;;18.45;11.40;;;;;;;16.75;86.51;101213.63;10389857;28;20105;-79
2022/10/17 18:47:55;;;;;;;13.35;10.48;;;;;;;16.62;86.75;101217.66;10388084;28;20054;-79
2022/10/17 18:52:58;;;;;;;16.70;12.65;;;;;;;16.66;86.50;101222.66;10383612;28;20045;-77
2022/10/17 18:58:03;;;;;;;17.40;11.43;;;;;;;16.48;87.07;101236.09;10396008;28;20132;-80
2022/10/17 19:03:06;;;;;;;17.05;11.27;;;;;;;16.52;86.91;101247.50;10406823;28;20049;-79
2022/10/17 19:08:09;;;;;;;15.38;11.55;;;;;;;16.50;87.23;101263.03;10406780;28;20732;-80
2022/10/17 19:13:13;;;;;;;20.55;11.50;;;;;;;16.56;86.84;101271.50;10385308;28;20045;-80
2022/10/17 19:18:22;;;;;;;17.10;11.50;;;;;;;16.49;86.56;101262.19;10404248;28;20049;-79
2022/10/17 19:23:25;;;;;;;15.70;11.60;;;;;;;16.53;86.63;101269.03;10391119;28;20071;-79
2022/10/17 19:28:29;;;;;;;16.83;12.52;;;;;;;16.55;86.65;101275.19;10387783;28;20082;-79
2022/10/17 19:33:34;;;;;;;17.65;11.70;;;;;;;16.33;87.34;101273.59;10380068;28;20052;-79
2022/10/17 19:38:37;;;;;;;18.23;13.20;;;;;;;16.43;87.04;101278.16;10388883;28;20041;-80
2022/10/17 19:43:43;;;;;;;19.98;13.95;;;;;;;16.61;86.42;101267.47;10400811;28;20422;-78
2022/10/17 19:48:47;;;;;;;17.23;14.13;;;;;;;16.54;86.49;101275.34;10404702;28;20049;-78
2022/10/17 19:53:51;;;;;;;23.75;15.43;;;;;;;16.54;86.77;101265.34;10382474;28;20132;-79
2022/10/17 19:58:56;;;;;;;20.63;15.85;;;;;;;16.32;88.36;101263.75;10404852;28;20049;-79
2022/10/17 20:03:58;;;;;;;23.15;15.73;;;;;;;16.44;87.02;101267.19;10384346;28;20045;-80
2022/10/17 20:09:01;;;;;;;19.23;15.00;;;;;;;16.28;87.42;101280.44;10400145;28;20053;-79
2022/10/17 20:14:06;;;;;;;24.85;16.88;;;;;;;16.18;87.42;101284.94;10390825;28;20609;-77
2022/10/17 20:19:12;;;;;;;22.38;16.80;;;;;;;16.27;87.09;101281.44;10387892;28;20057;-78
2022/10/17 20:24:16;;;;;;;18.95;15.80;;;;;;;16.26;87.08;101295.97;10396789;28;20049;-79
2022/10/17 20:29:22;;;;;;;20.98;14.55;;;;;;;16.03;87.56;101307.00;10400921;28;20045;-79
2022/10/17 20:34:25;;;;;;;19.42;14.85;;;;;;;15.75;89.03;101318.59;10413965;28;20055;-77
2022/10/17 20:39:29;;;;;;;25.08;17.83;;;;;;;16.09;87.61;101319.16;10407889;28;20275;-78
2022/10/17 20:44:33;;;;;;;26.88;16.45;;;;;;;15.94;87.96;101326.81;10391793;28;20056;-78
2022/10/17 20:49:36;;;;;;;22.67;17.33;;;;;;;16.18;87.43;101350.00;10387865;28;20088;-78
2022/10/17 20:54:39;;;;;;;25.88;18.80;;;;;;;16.31;86.22;101347.94;10389883;28;20116;-78
2022/10/17 20:59:44;;;;;;;26.25;19.15;;;;;;;16.19;87.09;101366.13;10389439;28;20065;-78
2022/10/17 21:04:48;;;;;;;27.27;18.98;;;;;;;16.33;86.62;101368.47;10376108;28;20056;-80
2022/10/17 21:09:51;;;;;;;26.55;19.10;;;;;;;16.45;86.98;101376.50;10399728;28;20127;-77
2022/10/17 21:14:55;;;;;;;27.65;18.20;;;;;;;16.51;87.12;101379.53;10408710;28;20067;-77
2022/10/17 21:19:58;;;;;;;26.83;19.92;;;;;;;16.54;87.61;101379.25;10411245;28;20533;-78
2022/10/17 21:25:01;;;;;;;27.73;18.38;;;;;;;16.60;87.89;101375.13;10405003;28;20049;-80
2022/10/17 21:30:06;;;;;;;22.05;18.02;;;;;;;16.61;87.71;101386.81;10397312;28;20053;-79
2022/10/17 21:35:14;;;;;;;26.30;18.38;;;;;;;16.51;86.75;101393.09;10398168;28;20049;-77
2022/10/17 21:40:17;;;;;;;22.27;16.58;;;;;;;16.52;87.11;101393.94;10405702;28;21416;-78
2022/10/17 21:45:21;;;;;;;22.65;18.10;;;;;;;16.46;86.31;101395.38;10429553;28;20084;-80
2022/10/17 21:50:28;;;;;;;25.67;18.20;;;;;;;16.32;86.23;101388.47;10472344;23;20095;-81
2022/10/17 21:55:30;;;;;;;26.80;19.75;;;;;;;16.09;86.38;101384.19;10466346;28;20100;-81
2022/10/17 22:00:35;;;;;;;22.60;18.60;;;;;;;16.06;86.63;101388.03;10442876;28;20037;-82
2022/10/17 22:05:37;;;;;;;28.45;18.92;;;;;;;16.14;85.79;101380.09;10461316;28;20069;-82
2022/10/17 22:10:40;;;;;;;34.20;20.95;;;;;;;16.18;86.09;101382.53;10457690;28;20097;-82
2022/10/17 22:15:44;;;;;;;34.15;24.27;;;;;;;16.06;86.65;101385.31;10471520;28;20037;-82
2022/10/17 22:20:47;;;;;;;32.63;23.73;;;;;;;16.19;86.23;101386.97;10488505;28;20067;-82
2022/10/17 22:25:53;;;;;;;29.73;22.73;;;;;;;16.17;86.12;101397.94;10498295;28;20049;-82
2022/10/17 22:30:58;;;;;;;28.90;22.02;;;;;;;16.23;86.70;101391.94;10444264;28;20132;-79
2022/10/17 22:36:01;;;;;;;34.00;23.70;;;;;;;16.21;86.38;101398.50;10459291;28;20067;-80
2022/10/17 22:41:04;;;;;;;37.72;24.60;;;;;;;16.15;86.72;101398.09;10459231;28;20064;-81
2022/10/17 22:46:12;;;;;;;34.53;24.05;;;;;;;16.12;87.41;101403.75;10460592;28;20087;-80
2022/10/17 22:51:15;;;;;;;48.17;26.92;;;;;;;16.09;87.80;101405.88;10446552;28;20089;-80
2022/10/17 22:56:20;;;;;;;35.30;26.80;;;;;;;16.11;88.34;101417.47;10466190;28;20076;-80
2022/10/17 23:01:25;;;;;;;34.90;25.67;;;;;;;16.07;87.76;101413.28;10450074;28;20068;-82
2022/10/17 23:06:28;;;;;;;41.85;27.77;;;;;;;16.01;87.76;101427.38;10451353;28;20052;-80
2022/10/17 23:11:31;;;;;;;46.47;29.35;;;;;;;15.97;87.88;101432.22;10467714;28;20094;-82
2022/10/17 23:16:35;;;;;;;41.88;27.77;;;;;;;15.94;87.44;101437.91;10461558;28;20072;-80
2022/10/17 23:21:38;;;;;;;38.08;26.75;;;;;;;15.93;87.55;101436.16;10467775;28;20116;-80